Portada
METAR-TAF:

METAR-TAF

Aeroports :

Aeroport de València

València, Espanya

latitud: 39-30N, longitud: 000-28W, altitud: 69 m

Observació

L'informe es va fer fa 28 minuts, a les 03:00 UTC
Vent 3 kt del Oest
Temperatura 7°C
Humitat 93%
Pressió 1017 hPa
Visibilitat 10 km o més
sense núvols per sota de 1500 mi sense presència de cumulonimbus.

METAR: LEVC 290300Z 28003KT CAVOK 07/06 Q1017 NOSIG

Hora: 05:28 (03:28 UTC)

Pronòstic

L'informe es va fer fa 4 hores i 28 minuts, a les 23:00 UTC
Pronòstic vàlid del 29 a les 00 UTC al 29 a les 24 UTC
Vent 5 kt del Oest
Visibilitat 10 km o més
Escasses núvols a una alçada de 3000 ft
Evolucionant progressivament
l' 29 a les 10 UTC al 29 a les 12 UTC
Vent 10 kt del Sud-Oest
Evolucionant progressivament
l' 29 a les 19 UTC al 29 a les 21 UTC
Vent 4 kt amb direcció variable

TAF: LEVC 282300Z 2900/2924 28005KT 9999 FEW030 TX22/2913Z TN06/2907Z BECMG 2910/2912 22010KT BECMG 2919/2921 VRB04KT

Observacions i pronòstics meteorològics de més de 4000 aeroports (METAR i TAF).

Les estacions disponibles són els punts grocs i vermells al mapa.

Posi el ratolí al punt desitjat per veure el nom de l'estació.

Feu clic per veure les observacions i els pronòstics meteorològics.

Per canviar el mapa: feu clic els botons verds amb una creu de color negre per apropar; al botó verd amb un guió per allunyar la imatge; o en les fletxes verdes per a mapes adjacents.


METAR-TAF: